createdAt,value
2022-11-28T00:01:23.013Z,5.88
2022-11-28T00:03:50.551Z,5.63
2022-11-28T00:06:18.746Z,5.15
2022-11-28T00:08:46.482Z,5.35
2022-11-28T00:11:15.187Z,5.22
2022-11-28T00:13:44.488Z,5.18
2022-11-28T00:16:14.836Z,5.25
2022-11-28T00:18:42.434Z,5.63
2022-11-28T00:21:11.350Z,5.47
2022-11-28T00:23:38.955Z,5.28
2022-11-28T00:26:07.691Z,5.28
2022-11-28T00:28:35.543Z,5.57
2022-11-28T00:31:04.453Z,5.32
2022-11-28T00:33:31.953Z,5.72
2022-11-28T00:36:00.300Z,5.30
2022-11-28T00:38:27.868Z,4.80
2022-11-28T00:41:01.919Z,4.78
2022-11-28T00:43:29.618Z,5.07
2022-11-28T00:45:57.148Z,5.40
2022-11-28T00:48:26.839Z,5.47
2022-11-28T00:50:54.938Z,5.47
2022-11-28T00:53:22.676Z,5.07
2022-11-28T00:55:50.223Z,4.72
2022-11-28T00:58:17.759Z,5.05
2022-11-28T01:00:45.314Z,5.40
2022-11-28T01:03:12.877Z,5.22
2022-11-28T01:05:43.243Z,5.18
2022-11-28T01:08:11.104Z,4.63
2022-11-28T01:10:40.385Z,5.03
2022-11-28T01:13:07.898Z,4.57
2022-11-28T01:15:35.424Z,5.20
2022-11-28T01:18:03.547Z,5.07
2022-11-28T01:20:31.112Z,4.90
2022-11-28T01:23:00.024Z,5.25
2022-11-28T01:25:27.530Z,4.97
2022-11-28T01:27:55.036Z,5.03
2022-11-28T01:30:22.547Z,5.25
2022-11-28T01:32:50.045Z,5.38
2022-11-28T01:35:17.597Z,5.47
2022-11-28T01:37:45.120Z,5.07
2022-11-28T01:40:14.719Z,5.07
2022-11-28T01:42:42.217Z,4.60
2022-11-28T01:45:14.437Z,4.47
2022-11-28T01:47:42.087Z,4.83
2022-11-28T01:50:10.478Z,4.93
2022-11-28T01:52:39.600Z,5.22
2022-11-28T01:55:08.011Z,5.22
2022-11-28T01:57:36.955Z,5.35
2022-11-28T02:00:09.061Z,5.30
2022-11-28T02:02:38.913Z,4.63
2022-11-28T02:05:06.889Z,5.32
2022-11-28T02:07:34.630Z,5.25
2022-11-28T02:10:03.135Z,4.90
2022-11-28T02:12:36.543Z,5.07
2022-11-28T02:15:13.205Z,5.55
2022-11-28T02:17:45.162Z,5.27
2022-11-28T02:20:32.711Z,4.85
2022-11-28T02:23:05.030Z,4.97
2022-11-28T02:25:46.841Z,5.20
2022-11-28T02:28:32.950Z,5.47
2022-11-28T02:31:09.878Z,5.30
2022-11-28T02:33:40.512Z,4.87
2022-11-28T02:36:11.104Z,5.33
2022-11-28T02:38:44.026Z,4.80
2022-11-28T02:41:16.348Z,5.20
2022-11-28T02:43:46.646Z,5.33
2022-11-28T02:46:15.915Z,4.67
2022-11-28T02:48:58.384Z,4.43
2022-11-28T02:51:28.238Z,4.95
2022-11-28T02:53:56.691Z,4.90
2022-11-28T02:56:24.383Z,5.03
2022-11-28T02:58:52.266Z,5.63
2022-11-28T03:01:21.962Z,4.90
2022-11-28T03:04:07.416Z,4.47
2022-11-28T03:06:42.601Z,5.10
2022-11-28T03:09:37.302Z,4.93
2022-11-28T03:12:11.152Z,4.90
2022-11-28T03:14:46.422Z,5.53
2022-11-28T03:17:17.300Z,5.27
2022-11-28T03:19:47.486Z,5.40
2022-11-28T03:22:21.603Z,5.10
2022-11-28T03:24:50.459Z,5.67
2022-11-28T03:27:20.285Z,5.05
2022-11-28T03:29:50.639Z,5.20
2022-11-28T03:32:19.603Z,4.90
2022-11-28T03:34:48.287Z,5.33
2022-11-28T03:37:18.794Z,5.70
2022-11-28T03:39:48.798Z,5.37
2022-11-28T03:42:18.160Z,5.30
2022-11-28T03:44:47.436Z,5.33
2022-11-28T03:47:14.980Z,4.80
2022-11-28T03:49:44.366Z,5.22
2022-11-28T03:52:15.910Z,5.50
2022-11-28T03:54:49.701Z,6.00
2022-11-28T03:57:20.923Z,5.55
2022-11-28T03:59:50.374Z,5.33
2022-11-28T04:02:21.891Z,5.57
2022-11-28T04:04:53.739Z,5.43
2022-11-28T04:07:24.709Z,5.80
2022-11-28T04:09:56.715Z,5.87
2022-11-28T04:12:27.564Z,6.07
2022-11-28T04:14:57.069Z,5.70
2022-11-28T04:17:27.969Z,6.10
2022-11-28T04:19:59.493Z,5.43
2022-11-28T04:22:29.903Z,5.83
2022-11-28T04:25:00.899Z,5.25
2022-11-28T04:27:29.746Z,5.10
2022-11-28T04:29:58.914Z,5.60
2022-11-28T04:32:28.019Z,5.53
2022-11-28T04:34:58.100Z,5.30
2022-11-28T04:37:26.167Z,5.47
2022-11-28T04:39:54.747Z,5.10
2022-11-28T04:42:26.026Z,5.57
2022-11-28T04:44:56.784Z,5.77
2022-11-28T04:47:25.028Z,5.57
2022-11-28T04:49:52.646Z,5.60
2022-11-28T04:52:21.936Z,5.00
2022-11-28T04:54:54.280Z,5.30
2022-11-28T04:57:25.350Z,5.00
2022-11-28T04:59:53.563Z,5.30
2022-11-28T05:02:22.612Z,5.03
2022-11-28T05:04:53.044Z,6.03
2022-11-28T05:07:20.627Z,5.33
2022-11-28T05:09:48.172Z,5.20
2022-11-28T05:12:15.629Z,6.10
2022-11-28T05:14:44.611Z,5.20
2022-11-28T05:17:12.899Z,5.10
2022-11-28T05:19:40.611Z,5.60
2022-11-28T05:22:08.087Z,6.13
2022-11-28T05:24:35.687Z,5.47
2022-11-28T05:27:03.328Z,5.70
2022-11-28T05:29:30.930Z,5.60
2022-11-28T05:31:59.861Z,5.13
2022-11-28T05:34:27.485Z,5.67
2022-11-28T05:36:54.967Z,5.37
2022-11-28T05:39:22.514Z,5.33
2022-11-28T05:41:50.296Z,6.20
2022-11-28T05:44:20.602Z,6.43
2022-11-28T05:46:50.484Z,6.27
2022-11-28T05:49:21.562Z,6.17
2022-11-28T05:51:49.362Z,7.17
2022-11-28T05:54:16.899Z,7.27
2022-11-28T05:56:44.388Z,7.13
2022-11-28T05:59:11.986Z,7.00
2022-11-28T06:01:39.742Z,7.23
2022-11-28T06:04:07.367Z,7.40
2022-11-28T06:06:36.758Z,6.50
2022-11-28T06:09:05.214Z,6.17
2022-11-28T06:11:33.279Z,6.93
2022-11-28T06:14:00.773Z,7.17
2022-11-28T06:16:29.393Z,6.70
2022-11-28T06:18:57.919Z,6.60
2022-11-28T06:21:26.100Z,6.15
2022-11-28T06:23:55.285Z,7.28
2022-11-28T06:26:24.458Z,7.03
2022-11-28T06:28:52.041Z,6.60
2022-11-28T06:31:21.005Z,6.72
2022-11-28T06:33:48.605Z,6.87
2022-11-28T06:36:17.271Z,6.97
2022-11-28T06:38:44.877Z,7.38
2022-11-28T06:41:14.540Z,6.63
2022-11-28T06:43:42.189Z,6.60
2022-11-28T06:46:16.009Z,6.70
2022-11-28T06:48:44.191Z,6.23
2022-11-28T06:51:12.475Z,7.37
2022-11-28T06:53:40.158Z,6.87
2022-11-28T06:56:08.695Z,7.23
2022-11-28T06:58:38.049Z,6.90
2022-11-28T07:01:10.035Z,6.73
2022-11-28T07:03:37.789Z,7.37
2022-11-28T07:06:06.395Z,7.30
2022-11-28T07:08:34.175Z,7.23
2022-11-28T07:11:08.655Z,7.10
2022-11-28T07:13:37.587Z,7.03
2022-11-28T07:16:05.259Z,7.33
2022-11-28T07:18:33.581Z,6.83
2022-11-28T07:21:01.260Z,6.70
2022-11-28T07:23:28.852Z,7.20
2022-11-28T07:25:59.896Z,6.50
2022-11-28T07:28:28.118Z,6.53
2022-11-28T07:31:04.219Z,6.37
2022-11-28T07:33:32.193Z,5.70
2022-11-28T07:36:03.006Z,5.87
2022-11-28T07:38:30.508Z,5.80
2022-11-28T07:41:03.356Z,5.87
2022-11-28T07:43:31.013Z,5.93
2022-11-28T07:46:01.384Z,5.23
2022-11-28T07:48:30.639Z,5.83
2022-11-28T07:50:58.155Z,5.57
2022-11-28T07:53:25.695Z,5.10
2022-11-28T07:55:53.167Z,5.77
2022-11-28T07:58:22.180Z,5.20
2022-11-28T08:00:49.687Z,5.90
2022-11-28T08:03:19.706Z,5.37
2022-11-28T08:05:49.775Z,9.27
2022-11-28T08:08:17.798Z,8.52
2022-11-28T08:10:45.454Z,6.90
2022-11-28T08:13:13.858Z,6.00
2022-11-28T08:15:41.493Z,6.50
2022-11-28T08:18:09.164Z,7.40
2022-11-28T08:20:36.748Z,6.70
2022-11-28T08:23:05.660Z,7.25
2022-11-28T08:25:33.371Z,7.30
2022-11-28T08:28:00.908Z,7.60
2022-11-28T08:30:28.508Z,7.30
2022-11-28T08:32:56.041Z,7.40
2022-11-28T08:35:23.547Z,6.97
2022-11-28T08:37:51.090Z,7.05
2022-11-28T08:40:20.132Z,6.35
2022-11-28T08:42:47.594Z,5.88
2022-11-28T08:45:16.159Z,7.05
2022-11-28T08:47:44.045Z,7.07
2022-11-28T08:50:11.882Z,6.70
2022-11-28T08:52:39.395Z,6.68
2022-11-28T08:55:07.305Z,7.50
2022-11-28T08:57:36.189Z,6.90
2022-11-28T09:00:06.184Z,7.07
2022-11-28T09:02:36.092Z,7.50
2022-11-28T09:05:03.749Z,7.90
2022-11-28T09:07:31.359Z,7.95
2022-11-28T09:09:58.902Z,8.80
2022-11-28T09:12:26.479Z,8.35
2022-11-28T09:14:55.425Z,8.43
2022-11-28T09:17:23.245Z,8.77
2022-11-28T09:19:50.796Z,8.80
2022-11-28T09:22:18.302Z,7.75
2022-11-28T09:24:45.812Z,8.20
2022-11-28T09:27:13.435Z,7.38
2022-11-28T09:29:41.332Z,7.47
2022-11-28T09:32:10.486Z,7.43
2022-11-28T09:34:38.183Z,7.15
2022-11-28T09:37:05.736Z,7.30
2022-11-28T09:39:50.302Z,7.22
2022-11-28T09:42:25.204Z,7.53
2022-11-28T09:44:54.608Z,7.15
2022-11-28T09:47:25.998Z,7.25
2022-11-28T09:49:55.696Z,7.38
2022-11-28T09:52:27.567Z,7.22
2022-11-28T09:54:59.639Z,6.95
2022-11-28T09:57:31.018Z,7.30
2022-11-28T09:59:58.546Z,6.95
2022-11-28T10:02:31.050Z,6.82
2022-11-28T10:05:03.644Z,7.38
2022-11-28T10:07:34.631Z,7.57
2022-11-28T10:10:04.280Z,7.85
2022-11-28T10:12:38.235Z,8.38
2022-11-28T10:15:11.759Z,7.57
2022-11-28T10:17:45.083Z,8.32
2022-11-28T10:20:15.315Z,7.75
2022-11-28T10:22:47.657Z,8.38
2022-11-28T10:25:17.992Z,8.15
2022-11-28T10:27:46.410Z,7.68
2022-11-28T10:30:18.982Z,7.25
2022-11-28T10:32:51.278Z,8.18
2022-11-28T10:35:28.330Z,7.57
2022-11-28T10:37:56.384Z,7.78
2022-11-28T10:40:29.506Z,7.13
2022-11-28T10:43:00.048Z,7.18
2022-11-28T10:45:30.224Z,7.93
2022-11-28T10:48:37.942Z,7.68
2022-11-28T10:51:02.146Z,7.43
2022-11-28T10:53:37.080Z,7.85
2022-11-28T10:56:11.760Z,8.18
2022-11-28T10:58:43.418Z,7.90
2022-11-28T11:01:11.737Z,7.97
2022-11-28T11:03:41.524Z,7.85
2022-11-28T11:06:09.677Z,7.53
2022-11-28T11:08:37.803Z,8.07
2022-11-28T11:11:06.737Z,7.57
2022-11-28T11:13:35.158Z,8.93
2022-11-28T11:16:04.316Z,7.95
2022-11-28T11:18:34.574Z,8.30
2022-11-28T11:21:09.998Z,7.40
2022-11-28T11:23:38.537Z,8.13
2022-11-28T11:26:10.245Z,7.55
2022-11-28T11:28:42.226Z,8.00
2022-11-28T11:31:16.425Z,7.85
2022-11-28T11:33:44.200Z,7.78
2022-11-28T11:36:22.873Z,8.07
2022-11-28T11:44:49.131Z,8.07
2022-11-28T11:47:16.790Z,8.45
2022-11-28T11:49:45.517Z,8.13
2022-11-28T11:52:19.118Z,8.50
2022-11-28T11:54:55.158Z,8.52
2022-11-28T11:57:33.153Z,9.40
2022-11-28T12:00:01.843Z,9.43
2022-11-28T12:02:32.656Z,10.43
2022-11-28T12:05:03.056Z,10.50
2022-11-28T12:07:34.844Z,10.13
2022-11-28T12:10:04.778Z,10.80
2022-11-28T12:12:36.199Z,9.82
2022-11-28T12:15:04.158Z,10.25
2022-11-28T12:20:31.517Z,8.82
2022-11-28T12:23:05.215Z,9.88
2022-11-28T12:25:35.220Z,9.07
2022-11-28T12:28:06.912Z,8.95
2022-11-28T12:30:43.452Z,8.23
2022-11-28T12:33:28.127Z,8.80
2022-11-28T12:36:03.590Z,9.27
2022-11-28T12:38:36.735Z,9.23
2022-11-28T12:41:11.491Z,9.38
2022-11-28T12:43:43.546Z,8.65
2022-11-28T12:46:18.449Z,9.63
2022-11-28T12:48:55.197Z,9.07
2022-11-28T12:51:29.658Z,10.57
2022-11-28T12:54:12.008Z,9.90
2022-11-28T12:56:48.675Z,10.07
2022-11-28T12:59:22.303Z,9.93
2022-11-28T13:01:55.981Z,11.00
2022-11-28T13:04:34.561Z,10.05
2022-11-28T13:07:06.765Z,11.10
2022-11-28T13:09:35.636Z,12.90
2022-11-28T13:12:15.259Z,11.48
2022-11-28T13:14:46.242Z,9.70
2022-11-28T13:17:18.362Z,9.80
2022-11-28T13:19:49.431Z,9.27
2022-11-28T13:22:20.365Z,9.82
2022-11-28T13:24:52.882Z,9.45
2022-11-28T13:27:32.357Z,9.48
2022-11-28T13:30:03.893Z,9.30
2022-11-28T13:32:36.926Z,8.68
2022-11-28T13:35:05.014Z,8.98
2022-11-28T13:40:28.925Z,9.70
2022-11-28T13:43:07.110Z,12.73
2022-11-28T13:45:39.068Z,11.50
2022-11-28T13:48:32.228Z,11.00
2022-11-28T13:51:20.767Z,10.30
2022-11-28T13:54:11.695Z,10.75
2022-11-28T13:56:39.932Z,10.02
2022-11-28T13:59:17.567Z,10.40
2022-11-28T14:01:46.109Z,10.73
2022-11-28T14:04:14.742Z,10.65
2022-11-28T14:06:44.516Z,11.45
2022-11-28T14:09:22.875Z,10.07
2022-11-28T14:11:56.587Z,11.57
2022-11-28T14:14:34.183Z,11.20
2022-11-28T14:17:29.455Z,11.27
2022-11-28T14:20:05.787Z,11.25
2022-11-28T14:22:39.055Z,10.25
2022-11-28T14:25:10.701Z,10.55
2022-11-28T14:27:40.379Z,10.05
2022-11-28T14:30:23.433Z,9.75
2022-11-28T14:32:56.161Z,9.40
2022-11-28T14:35:38.646Z,10.52
2022-11-28T14:38:26.163Z,9.25
2022-11-28T14:41:02.489Z,10.25
2022-11-28T14:43:30.690Z,10.80
2022-11-28T14:46:28.552Z,9.60
2022-11-28T14:49:17.222Z,10.23
2022-11-28T14:52:23.092Z,10.27
2022-11-28T14:54:52.923Z,10.05
2022-11-28T14:57:23.179Z,10.95
2022-11-28T14:59:51.363Z,11.77
2022-11-28T15:02:34.802Z,11.82
2022-11-28T15:05:21.010Z,14.10
2022-11-28T15:07:55.412Z,12.55
2022-11-28T15:10:27.956Z,12.55
2022-11-28T15:12:59.483Z,12.48
2022-11-28T15:15:27.071Z,12.63
2022-11-28T15:17:55.519Z,12.40
2022-11-28T15:20:27.798Z,13.55
2022-11-28T15:22:55.301Z,15.02
2022-11-28T15:25:24.353Z,16.27
2022-11-28T15:27:55.309Z,17.30
2022-11-28T15:30:26.372Z,17.38
2022-11-28T15:32:55.602Z,18.35
2022-11-28T15:35:23.177Z,15.27
2022-11-28T15:37:51.706Z,14.90
2022-11-28T15:40:21.216Z,15.40
2022-11-28T15:42:49.574Z,13.48
2022-11-28T15:45:23.145Z,15.13
2022-11-28T15:47:51.095Z,48.58
2022-11-28T15:50:20.131Z,29.65
2022-11-28T15:52:54.000Z,41.00
2022-11-28T15:55:21.664Z,19.27
2022-11-28T15:57:49.198Z,18.48
2022-11-28T16:00:17.723Z,14.48
2022-11-28T16:02:46.751Z,14.65
2022-11-28T16:05:20.753Z,14.15
2022-11-28T16:07:49.841Z,15.77
2022-11-28T16:10:21.902Z,17.30
2022-11-28T16:12:50.761Z,16.48
2022-11-28T16:15:19.049Z,15.48
2022-11-28T16:17:50.668Z,14.73
2022-11-28T16:20:22.227Z,13.77
2022-11-28T16:22:49.748Z,13.73
2022-11-28T16:25:21.758Z,13.93
2022-11-28T16:27:53.039Z,14.02
2022-11-28T16:30:41.717Z,15.10
2022-11-28T16:33:24.082Z,13.30
2022-11-28T16:35:52.885Z,12.00
2022-11-28T16:38:23.465Z,17.90
2022-11-28T16:40:51.528Z,22.42
2022-11-28T16:43:21.012Z,20.92
2022-11-28T16:45:57.855Z,18.05
2022-11-28T16:48:27.299Z,18.17
2022-11-28T16:51:22.407Z,20.48
2022-11-28T16:53:50.832Z,21.45
2022-11-28T16:56:24.729Z,33.00
2022-11-28T16:58:52.770Z,30.33
2022-11-28T17:01:21.521Z,27.38
2022-11-28T17:03:50.319Z,30.10
2022-11-28T17:06:33.873Z,20.77
2022-11-28T17:09:02.039Z,17.92
2022-11-28T17:11:30.612Z,20.75
2022-11-28T17:13:58.949Z,19.00
2022-11-28T17:16:29.197Z,19.73
2022-11-28T17:18:56.708Z,17.48
2022-11-28T17:21:27.972Z,16.55
2022-11-28T17:23:56.815Z,14.00
2022-11-28T17:26:24.330Z,13.63
2022-11-28T17:28:52.164Z,10.50
2022-11-28T17:31:19.676Z,9.90
2022-11-28T17:33:47.308Z,10.88
2022-11-28T17:36:14.827Z,10.30
2022-11-28T17:38:42.550Z,11.60
2022-11-28T17:41:13.516Z,12.43
2022-11-28T17:43:41.357Z,13.68
2022-11-28T17:46:09.111Z,14.45
2022-11-28T17:48:37.097Z,14.05
2022-11-28T17:51:04.775Z,12.85
2022-11-28T17:53:32.271Z,14.80
2022-11-28T17:55:59.949Z,15.75
2022-11-28T17:58:29.262Z,16.35
2022-11-28T18:01:00.576Z,15.45
2022-11-28T18:03:28.854Z,15.63
2022-11-28T18:05:56.426Z,14.90
2022-11-28T18:08:24.148Z,16.58
2022-11-28T18:10:51.689Z,16.17
2022-11-28T18:13:19.250Z,16.25
2022-11-28T18:15:48.993Z,17.20
2022-11-28T18:18:16.531Z,17.25
2022-11-28T18:20:44.042Z,16.75
2022-11-28T18:23:11.933Z,17.42
2022-11-28T18:25:41.945Z,18.85
2022-11-28T18:28:12.210Z,19.20
2022-11-28T18:30:43.580Z,19.08
2022-11-28T18:33:13.024Z,15.95
2022-11-28T18:35:40.682Z,16.05
2022-11-28T18:38:08.925Z,16.10
2022-11-28T18:40:37.512Z,16.50
2022-11-28T18:43:05.045Z,16.55
2022-11-28T18:45:33.335Z,16.40
2022-11-28T18:48:00.848Z,16.70
2022-11-28T18:50:29.751Z,17.77
2022-11-28T18:52:57.309Z,16.90
2022-11-28T18:55:24.869Z,17.02
2022-11-28T18:57:52.448Z,18.13
2022-11-28T19:00:20.646Z,18.23
2022-11-28T19:02:48.193Z,17.55
2022-11-28T19:05:15.795Z,15.75
2022-11-28T19:07:44.806Z,15.40
2022-11-28T19:10:12.748Z,15.95
2022-11-28T19:12:41.038Z,17.35
2022-11-28T19:15:10.798Z,17.52
2022-11-28T19:17:38.386Z,17.00
2022-11-28T19:20:06.693Z,17.65
2022-11-28T19:22:35.446Z,17.73
2022-11-28T19:25:04.541Z,17.88
2022-11-28T19:27:32.389Z,17.85
2022-11-28T19:29:59.931Z,18.27
2022-11-28T19:32:27.747Z,18.27
2022-11-28T19:34:55.687Z,18.73
2022-11-28T19:37:23.277Z,16.38
2022-11-28T19:39:50.843Z,16.42
2022-11-28T19:42:19.826Z,16.27
2022-11-28T19:44:47.456Z,16.45
2022-11-28T19:47:15.063Z,16.33
2022-11-28T19:49:42.868Z,16.10
2022-11-28T19:52:10.566Z,16.90
2022-11-28T19:54:38.146Z,17.88
2022-11-28T19:57:07.696Z,17.05
2022-11-28T19:59:36.619Z,17.05
2022-11-28T20:02:04.709Z,15.63
2022-11-28T20:04:32.296Z,15.73
2022-11-28T20:06:59.837Z,16.40
2022-11-28T20:09:27.379Z,15.38
2022-11-28T20:11:57.401Z,15.02
2022-11-28T20:14:24.952Z,15.98
2022-11-28T20:16:53.909Z,15.95
2022-11-28T20:19:22.818Z,14.52
2022-11-28T20:21:50.422Z,14.45
2022-11-28T20:24:17.920Z,15.45
2022-11-28T20:26:45.646Z,15.63
2022-11-28T20:29:14.068Z,15.48
2022-11-28T20:31:45.556Z,16.08
2022-11-28T20:34:15.052Z,15.70
2022-11-28T20:36:42.727Z,15.60
2022-11-28T20:39:11.609Z,15.13
2022-11-28T20:41:39.544Z,15.63
2022-11-28T20:44:07.422Z,16.20
2022-11-28T20:46:35.637Z,17.35
2022-11-28T20:49:04.963Z,17.00
2022-11-28T20:51:34.492Z,15.30
2022-11-28T20:54:02.556Z,15.90
2022-11-28T20:56:31.729Z,15.88
2022-11-28T20:59:00.738Z,16.75
2022-11-28T21:01:29.299Z,16.33
2022-11-28T21:03:57.372Z,17.42
2022-11-28T21:06:24.928Z,17.55
2022-11-28T21:08:56.440Z,17.05
2022-11-28T21:11:55.142Z,16.83
2022-11-28T21:14:14.141Z,17.15
2022-11-28T21:16:41.811Z,16.15
2022-11-28T21:19:09.841Z,16.67
2022-11-28T21:21:38.285Z,18.17
2022-11-28T21:24:08.380Z,17.52
2022-11-28T21:26:40.925Z,16.45
2022-11-28T21:29:13.013Z,16.63
2022-11-28T21:31:42.451Z,16.30
2022-11-28T21:34:13.032Z,17.13
2022-11-28T21:36:40.626Z,21.23
2022-11-28T21:39:12.689Z,27.52
2022-11-28T21:41:40.257Z,22.83
2022-11-28T21:44:07.926Z,20.95
2022-11-28T21:46:35.396Z,28.15
2022-11-28T21:49:02.937Z,24.70
2022-11-28T21:51:30.546Z,24.50
2022-11-28T21:53:58.399Z,22.67
2022-11-28T21:56:27.331Z,32.13
2022-11-28T21:58:54.904Z,28.58
2022-11-28T22:01:22.627Z,27.42
2022-11-28T22:03:50.414Z,26.23
2022-11-28T22:06:19.275Z,20.73
2022-11-28T22:08:48.589Z,20.77
2022-11-28T22:11:16.126Z,19.05
2022-11-28T22:13:46.283Z,19.98
2022-11-28T22:16:16.107Z,20.77
2022-11-28T22:18:44.028Z,21.35
2022-11-28T22:21:43.206Z,20.15
2022-11-28T22:23:59.358Z,19.27
2022-11-28T22:26:26.874Z,19.38
2022-11-28T22:28:56.018Z,17.30
2022-11-28T22:31:23.651Z,17.35
2022-11-28T22:33:51.620Z,17.15
2022-11-28T22:36:19.895Z,17.58
2022-11-28T22:38:48.381Z,18.02
2022-11-28T22:41:19.804Z,17.25
2022-11-28T22:43:53.204Z,16.92
2022-11-28T22:46:22.526Z,19.05
2022-11-28T22:48:50.569Z,18.00
2022-11-28T22:51:19.049Z,18.00
2022-11-28T22:53:46.729Z,17.58
2022-11-28T22:56:15.445Z,18.23
2022-11-28T22:58:43.586Z,18.13
2022-11-28T23:01:12.434Z,17.55
2022-11-28T23:03:41.392Z,20.60
2022-11-28T23:06:10.082Z,19.98
2022-11-28T23:08:38.058Z,20.17
2022-11-28T23:11:06.178Z,20.10
2022-11-28T23:13:33.779Z,20.00
2022-11-28T23:16:09.442Z,18.73
2022-11-28T23:18:37.090Z,18.98
2022-11-28T23:21:06.341Z,17.92
2022-11-28T23:23:34.049Z,17.15
2022-11-28T23:26:05.192Z,19.13
2022-11-28T23:28:33.083Z,18.70
2022-11-28T23:31:07.232Z,17.92
2022-11-28T23:33:34.815Z,17.48
2022-11-28T23:36:11.189Z,17.70
2022-11-28T23:38:40.080Z,16.60
2022-11-28T23:41:21.353Z,16.77
2022-11-28T23:43:55.325Z,16.80
2022-11-28T23:46:26.528Z,17.42
2022-11-28T23:52:17.490Z,17.30
2022-11-28T23:54:58.957Z,17.10
2022-11-28T23:57:27.798Z,17.63
